createdAt,value
2017-07-25T00:00:41.596Z,0
2017-07-25T00:01:41.578Z,0
2017-07-25T00:02:41.627Z,0
2017-07-25T00:03:41.642Z,0
2017-07-25T00:04:41.700Z,0
2017-07-25T00:05:41.721Z,0
2017-07-25T00:06:41.784Z,0
2017-07-25T00:07:41.826Z,0
2017-07-25T00:08:41.843Z,0
2017-07-25T00:09:41.868Z,0
2017-07-25T00:10:41.895Z,0
2017-07-25T00:11:41.986Z,0
2017-07-25T00:12:41.961Z,0
2017-07-25T00:13:42.007Z,0
2017-07-25T00:14:42.042Z,0
2017-07-25T00:15:42.085Z,0
2017-07-25T00:16:42.123Z,0
2017-07-25T00:17:42.141Z,0
2017-07-25T00:18:42.190Z,0
2017-07-25T00:19:42.215Z,0
2017-07-25T00:20:42.249Z,0
2017-07-25T00:21:42.261Z,0
2017-07-25T00:22:42.323Z,0
2017-07-25T00:23:42.354Z,0
2017-07-25T00:24:42.386Z,0
2017-07-25T00:25:42.409Z,0
2017-07-25T00:26:42.466Z,0
2017-07-25T00:27:42.498Z,0
2017-07-25T00:28:42.515Z,0
2017-07-25T00:29:42.527Z,0
2017-07-25T00:30:42.606Z,0
2017-07-25T00:31:42.632Z,0
2017-07-25T00:32:42.647Z,0
2017-07-25T00:33:43.976Z,0
2017-07-25T00:34:42.734Z,0
2017-07-25T00:35:42.764Z,0
2017-07-25T00:36:42.779Z,0
2017-07-25T00:37:42.870Z,0
2017-07-25T00:38:43.973Z,0
2017-07-25T00:39:43.972Z,0
2017-07-25T00:40:42.930Z,0
2017-07-25T00:41:42.959Z,0
2017-07-25T00:42:43.006Z,0
2017-07-25T00:43:43.028Z,0
2017-07-25T00:44:43.071Z,0
2017-07-25T00:45:43.102Z,0
2017-07-25T00:46:43.139Z,0
2017-07-25T00:47:43.159Z,0
2017-07-25T00:48:43.208Z,0
2017-07-25T00:49:43.238Z,0
2017-07-25T00:50:43.281Z,0
2017-07-25T00:51:43.311Z,0
2017-07-25T00:52:43.345Z,0
2017-07-25T00:53:43.389Z,0
2017-07-25T00:54:43.425Z,0
2017-07-25T00:55:43.458Z,0
2017-07-25T00:56:43.500Z,0
2017-07-25T00:57:43.514Z,0
2017-07-25T00:58:43.537Z,0
2017-07-25T00:59:43.584Z,0
2017-07-25T01:00:43.604Z,0
2017-07-25T01:01:43.655Z,0
2017-07-25T01:02:43.715Z,0
2017-07-25T01:03:43.706Z,0
2017-07-25T01:04:43.777Z,0
2017-07-25T01:05:43.774Z,0
2017-07-25T01:06:43.856Z,0
2017-07-25T01:07:43.877Z,0
2017-07-25T01:08:43.877Z,0
2017-07-25T01:09:43.924Z,0
2017-07-25T01:10:43.972Z,0
2017-07-25T01:11:43.979Z,0
2017-07-25T01:12:44.020Z,0
2017-07-25T01:13:44.052Z,0
2017-07-25T01:14:44.075Z,0
2017-07-25T01:15:44.122Z,0
2017-07-25T01:16:44.161Z,0
2017-07-25T01:17:44.212Z,0
2017-07-25T01:18:44.217Z,0
2017-07-25T01:19:44.269Z,0
2017-07-25T01:20:44.316Z,0
2017-07-25T01:21:44.361Z,0
2017-07-25T01:22:44.358Z,0
2017-07-25T01:23:44.391Z,0
2017-07-25T01:24:44.454Z,0
2017-07-25T01:25:44.479Z,0
2017-07-25T01:26:44.527Z,0
2017-07-25T01:27:44.560Z,0
2017-07-25T01:28:44.591Z,0
2017-07-25T01:29:44.596Z,0
2017-07-25T01:30:44.620Z,0
2017-07-25T01:31:44.671Z,0
2017-07-25T01:32:44.718Z,0
2017-07-25T01:33:44.742Z,0
2017-07-25T01:34:44.808Z,0
2017-07-25T01:35:44.827Z,0
2017-07-25T01:36:44.850Z,0
2017-07-25T01:37:44.888Z,0
2017-07-25T01:38:44.913Z,0
2017-07-25T01:39:44.954Z,0
2017-07-25T01:40:44.988Z,0
2017-07-25T01:41:45.023Z,0
2017-07-25T01:42:45.063Z,0
2017-07-25T01:43:45.091Z,0
2017-07-25T01:44:45.122Z,0
2017-07-25T01:45:45.160Z,0
2017-07-25T01:46:45.199Z,0
2017-07-25T01:47:45.228Z,0
2017-07-25T01:48:45.280Z,0
2017-07-25T01:49:45.311Z,0
2017-07-25T01:50:45.312Z,0
2017-07-25T01:51:45.395Z,0
2017-07-25T01:52:45.409Z,0
2017-07-25T01:53:45.456Z,0
2017-07-25T01:54:45.490Z,0
2017-07-25T01:55:45.512Z,0
2017-07-25T01:56:45.550Z,0
2017-07-25T01:57:45.559Z,0
2017-07-25T01:58:45.623Z,0
2017-07-25T01:59:45.637Z,0
2017-07-25T02:00:45.690Z,0
2017-07-25T02:01:45.760Z,0
2017-07-25T02:02:45.783Z,0
2017-07-25T02:03:45.762Z,0
2017-07-25T02:04:45.782Z,0
2017-07-25T02:05:45.859Z,0
2017-07-25T02:06:45.968Z,0
2017-07-25T02:07:45.917Z,0
2017-07-25T02:08:45.939Z,0
2017-07-25T02:09:45.999Z,0
2017-07-25T02:10:45.996Z,0
2017-07-25T02:11:46.052Z,0
2017-07-25T02:12:46.113Z,0
2017-07-25T02:13:46.119Z,0
2017-07-25T02:14:46.144Z,0
2017-07-25T02:15:46.189Z,0
2017-07-25T02:16:46.190Z,0
2017-07-25T02:17:46.261Z,0
2017-07-25T02:18:46.306Z,0
2017-07-25T02:19:46.321Z,0
2017-07-25T02:20:46.367Z,0
2017-07-25T02:21:46.381Z,0
2017-07-25T02:22:46.416Z,0
2017-07-25T02:23:46.463Z,0
2017-07-25T02:24:46.482Z,0
2017-07-25T02:25:46.536Z,0
2017-07-25T02:26:46.558Z,0
2017-07-25T02:27:46.612Z,0
2017-07-25T02:28:46.591Z,0
2017-07-25T02:29:46.657Z,0
2017-07-25T02:30:46.669Z,0
2017-07-25T02:31:46.710Z,0
2017-07-25T02:32:46.776Z,0
2017-07-25T02:33:46.799Z,0
2017-07-25T02:34:46.808Z,0
2017-07-25T02:35:46.852Z,0
2017-07-25T02:36:46.883Z,0
2017-07-25T02:37:46.932Z,0
2017-07-25T02:38:46.945Z,0
2017-07-25T02:39:47.012Z,0
2017-07-25T02:40:47.035Z,0
2017-07-25T02:41:47.051Z,0
2017-07-25T02:42:47.101Z,0
2017-07-25T02:43:47.148Z,0
2017-07-25T02:44:47.157Z,0
2017-07-25T02:45:47.217Z,0
2017-07-25T02:46:47.210Z,0
2017-07-25T02:47:47.243Z,0
2017-07-25T02:48:47.283Z,0
2017-07-25T02:49:47.320Z,0
2017-07-25T02:50:47.355Z,0
2017-07-25T02:51:47.380Z,0
2017-07-25T02:52:47.410Z,0
2017-07-25T02:53:47.432Z,0
2017-07-25T02:54:47.487Z,0
2017-07-25T02:55:47.520Z,0
2017-07-25T02:56:47.539Z,0
2017-07-25T02:57:47.569Z,0
2017-07-25T02:58:47.645Z,0
2017-07-25T02:59:47.656Z,0
2017-07-25T03:00:47.690Z,0
2017-07-25T03:01:47.728Z,0
2017-07-25T03:02:47.756Z,0
2017-07-25T03:03:47.799Z,0
2017-07-25T03:04:47.837Z,0
2017-07-25T03:05:47.854Z,0
2017-07-25T03:06:47.905Z,0
2017-07-25T03:07:47.925Z,0
2017-07-25T03:08:47.950Z,0
2017-07-25T03:09:47.975Z,0
2017-07-25T03:10:48.009Z,0
2017-07-25T03:11:48.060Z,0
2017-07-25T03:12:48.072Z,0
2017-07-25T03:13:48.103Z,0
2017-07-25T03:14:48.154Z,0
2017-07-25T03:15:48.189Z,0
2017-07-25T03:16:48.204Z,0
2017-07-25T03:17:48.222Z,0
2017-07-25T03:18:48.282Z,0
2017-07-25T03:19:48.310Z,0
2017-07-25T03:20:48.350Z,0
2017-07-25T03:21:48.385Z,0
2017-07-25T03:22:48.413Z,0
2017-07-25T03:23:48.436Z,0
2017-07-25T03:24:48.469Z,0
2017-07-25T03:25:48.515Z,0
2017-07-25T03:26:48.551Z,0
2017-07-25T03:27:48.563Z,0
2017-07-25T03:28:48.610Z,0
2017-07-25T03:29:48.647Z,0
2017-07-25T03:30:48.707Z,0
2017-07-25T03:31:48.703Z,0
2017-07-25T03:32:48.749Z,0
2017-07-25T03:33:48.784Z,0
2017-07-25T03:34:48.822Z,0
2017-07-25T03:35:48.838Z,0
2017-07-25T03:36:48.861Z,0
2017-07-25T03:37:48.915Z,0
2017-07-25T03:38:48.902Z,0
2017-07-25T03:39:48.976Z,0
2017-07-25T03:40:49.018Z,0
2017-07-25T03:41:48.998Z,0
2017-07-25T03:42:49.085Z,0
2017-07-25T03:43:49.110Z,0
2017-07-25T03:44:49.129Z,0
2017-07-25T03:45:49.174Z,0
2017-07-25T03:46:49.212Z,0
2017-07-25T03:47:49.241Z,0
2017-07-25T03:48:49.304Z,0
2017-07-25T03:49:49.305Z,0
2017-07-25T03:50:49.344Z,0
2017-07-25T03:51:49.378Z,5
2017-07-25T03:52:49.381Z,5
2017-07-25T03:53:49.414Z,5
2017-07-25T03:54:49.481Z,5
2017-07-25T03:55:49.485Z,5
2017-07-25T03:56:49.509Z,5
2017-07-25T03:57:49.549Z,5
2017-07-25T03:58:49.558Z,10
2017-07-25T03:59:49.637Z,10
2017-07-25T04:00:49.640Z,5
2017-07-25T04:01:49.705Z,10
2017-07-25T04:02:49.738Z,10
2017-07-25T04:03:49.738Z,10
2017-07-25T04:04:49.777Z,5
2017-07-25T04:05:49.843Z,5
2017-07-25T04:06:49.877Z,5
2017-07-25T04:07:49.880Z,5
2017-07-25T04:08:49.912Z,5
2017-07-25T04:09:49.949Z,5
2017-07-25T04:10:50.010Z,5
2017-07-25T04:11:50.010Z,5
2017-07-25T04:12:50.009Z,5
2017-07-25T04:13:50.112Z,5
2017-07-25T04:14:50.138Z,5
2017-07-25T04:15:50.132Z,5
2017-07-25T04:16:50.179Z,5
2017-07-25T04:17:50.246Z,5
2017-07-25T04:18:50.254Z,5
2017-07-25T04:19:50.258Z,5
2017-07-25T04:20:50.332Z,5
2017-07-25T04:21:50.310Z,10
2017-07-25T04:22:50.451Z,10
2017-07-25T04:23:50.395Z,10
2017-07-25T04:24:50.438Z,10
2017-07-25T04:25:50.484Z,10
2017-07-25T04:26:50.507Z,10
2017-07-25T04:27:50.504Z,10
2017-07-25T04:28:50.581Z,10
2017-07-25T04:29:50.617Z,10
2017-07-25T04:30:50.618Z,10
2017-07-25T04:31:50.680Z,10
2017-07-25T04:32:50.701Z,10
2017-07-25T04:33:50.694Z,10
2017-07-25T04:34:50.794Z,10
2017-07-25T04:35:50.810Z,10
2017-07-25T04:36:50.814Z,10
2017-07-25T04:37:50.889Z,10
2017-07-25T04:38:50.906Z,10
2017-07-25T04:39:50.899Z,15
2017-07-25T04:40:50.949Z,15
2017-07-25T04:41:51.015Z,15
2017-07-25T04:42:51.031Z,15
2017-07-25T04:43:51.052Z,15
2017-07-25T04:44:51.090Z,15
2017-07-25T04:45:51.144Z,15
2017-07-25T04:46:51.171Z,15
2017-07-25T04:47:51.209Z,15
2017-07-25T04:48:51.178Z,20
2017-07-25T04:49:51.249Z,20
2017-07-25T04:50:51.297Z,20
2017-07-25T04:51:51.309Z,15
2017-07-25T04:52:51.385Z,15
2017-07-25T04:53:51.388Z,15
2017-07-25T04:54:51.441Z,15
2017-07-25T04:55:51.468Z,10
2017-07-25T04:56:51.502Z,10
2017-07-25T04:57:51.514Z,10
2017-07-25T04:58:51.575Z,15
2017-07-25T04:59:51.586Z,20
2017-07-25T05:00:51.710Z,20
2017-07-25T05:01:51.753Z,20
2017-07-25T05:02:51.670Z,20
2017-07-25T05:03:51.852Z,25
2017-07-25T05:04:51.775Z,25
2017-07-25T05:05:51.788Z,25
2017-07-25T05:06:51.848Z,25
2017-07-25T05:07:51.844Z,30
2017-07-25T05:08:51.914Z,30
2017-07-25T05:09:51.935Z,25
2017-07-25T05:10:51.956Z,25
2017-07-25T05:11:51.986Z,20
2017-07-25T05:12:52.041Z,20
2017-07-25T05:13:52.261Z,20
2017-07-25T05:14:52.102Z,20
2017-07-25T05:15:52.152Z,20
2017-07-25T05:16:52.160Z,25
2017-07-25T05:17:52.211Z,25
2017-07-25T05:18:52.210Z,25
2017-07-25T05:19:52.277Z,25
2017-07-25T05:20:53.981Z,25
2017-07-25T05:21:52.930Z,25
2017-07-25T05:22:52.351Z,25
2017-07-25T05:23:52.381Z,25
2017-07-25T05:24:52.412Z,25
2017-07-25T05:25:52.471Z,30
2017-07-25T05:26:52.456Z,30
2017-07-25T05:27:52.498Z,25
2017-07-25T05:28:52.549Z,35
2017-07-25T05:29:52.594Z,45
2017-07-25T05:30:52.642Z,50
2017-07-25T05:31:52.658Z,50
2017-07-25T05:32:52.697Z,45
2017-07-25T05:33:52.704Z,45
2017-07-25T05:34:52.771Z,55
2017-07-25T05:35:52.779Z,55
2017-07-25T05:36:52.821Z,55
2017-07-25T05:37:52.860Z,60
2017-07-25T05:38:52.880Z,50
2017-07-25T05:39:52.932Z,35
2017-07-25T05:40:52.977Z,40
2017-07-25T05:41:53.014Z,50
2017-07-25T05:42:53.043Z,50
2017-07-25T05:43:53.063Z,45
2017-07-25T05:44:53.115Z,50
2017-07-25T05:45:53.142Z,55
2017-07-25T05:46:53.162Z,55
2017-07-25T05:47:53.213Z,60
2017-07-25T05:48:53.228Z,70
2017-07-25T05:49:53.273Z,80
2017-07-25T05:50:53.359Z,80
2017-07-25T05:51:53.310Z,80
2017-07-25T05:52:53.359Z,70
2017-07-25T05:53:53.392Z,75
2017-07-25T05:54:53.444Z,60
2017-07-25T05:55:53.476Z,65
2017-07-25T05:56:53.719Z,65
2017-07-25T05:57:53.540Z,75
2017-07-25T05:58:53.539Z,60
2017-07-25T05:59:53.590Z,60
2017-07-25T06:00:54.136Z,70
2017-07-25T06:01:53.657Z,75
2017-07-25T06:02:53.682Z,70
2017-07-25T06:03:53.720Z,70
2017-07-25T06:04:53.764Z,65
2017-07-25T06:05:53.816Z,65
2017-07-25T06:06:53.824Z,60
2017-07-25T06:07:53.837Z,60
2017-07-25T06:08:54.067Z,55
2017-07-25T06:09:53.989Z,55
2017-07-25T06:10:53.981Z,55
2017-07-25T06:11:53.979Z,60
2017-07-25T06:12:54.046Z,65
2017-07-25T06:13:54.262Z,65
2017-07-25T06:14:54.110Z,45
2017-07-25T06:15:54.111Z,35
2017-07-25T06:16:54.192Z,30
2017-07-25T06:17:54.213Z,25
2017-07-25T06:18:54.247Z,15
2017-07-25T06:19:54.289Z,15
2017-07-25T06:20:54.315Z,15
2017-07-25T06:21:54.520Z,20
2017-07-25T06:22:54.390Z,30
2017-07-25T06:23:54.419Z,25
2017-07-25T06:24:54.462Z,30
2017-07-25T06:25:54.472Z,35
2017-07-25T06:26:54.517Z,50
2017-07-25T06:27:54.512Z,60
2017-07-25T06:28:54.589Z,75
2017-07-25T06:29:54.680Z,75
2017-07-25T06:30:54.681Z,70
2017-07-25T06:31:54.662Z,65
2017-07-25T06:32:54.710Z,65
2017-07-25T06:33:54.731Z,70
2017-07-25T06:34:54.787Z,70
2017-07-25T06:35:54.829Z,70
2017-07-25T06:36:54.845Z,75
2017-07-25T06:37:54.882Z,85
2017-07-25T06:38:54.865Z,85
2017-07-25T06:39:54.870Z,85
2017-07-25T06:40:54.944Z,85
2017-07-25T06:41:55.024Z,85
2017-07-25T06:42:55.053Z,85
2017-07-25T06:43:55.079Z,85
2017-07-25T06:44:55.122Z,90
2017-07-25T06:45:55.150Z,75
2017-07-25T06:46:55.183Z,75
2017-07-25T06:47:55.292Z,75
2017-07-25T06:48:55.250Z,75
2017-07-25T06:49:55.296Z,75
2017-07-25T06:50:55.345Z,75
2017-07-25T06:51:55.350Z,80
2017-07-25T06:52:55.369Z,85
2017-07-25T06:53:55.414Z,90
2017-07-25T06:54:55.471Z,95
2017-07-25T06:55:55.496Z,95
2017-07-25T06:56:55.596Z,95
2017-07-25T06:57:55.580Z,95
2017-07-25T06:58:55.606Z,95
2017-07-25T06:59:55.607Z,85
2017-07-25T07:01:05.699Z,75
2017-07-25T07:01:55.699Z,75
2017-07-25T07:02:55.726Z,75
2017-07-25T07:03:55.735Z,80
2017-07-25T07:04:55.798Z,85
2017-07-25T07:05:55.831Z,95
2017-07-25T07:06:55.854Z,100
2017-07-25T07:07:55.891Z,115
2017-07-25T07:08:55.903Z,130
2017-07-25T07:09:55.916Z,130
2017-07-25T07:10:55.971Z,125
2017-07-25T07:11:56.237Z,120
2017-07-25T07:12:56.032Z,115
2017-07-25T07:13:56.098Z,110
2017-07-25T07:14:56.133Z,115
2017-07-25T07:15:56.129Z,110
2017-07-25T07:16:56.218Z,105
2017-07-25T07:17:56.234Z,110
2017-07-25T07:18:56.330Z,110
2017-07-25T07:19:56.359Z,115
2017-07-25T07:20:56.308Z,115
2017-07-25T07:21:56.365Z,115
2017-07-25T07:22:56.401Z,130
2017-07-25T07:23:56.434Z,140
2017-07-25T07:24:56.463Z,150
2017-07-25T07:25:56.480Z,155
2017-07-25T07:26:56.500Z,145
2017-07-25T07:27:56.551Z,130
2017-07-25T07:28:56.595Z,125
2017-07-25T07:29:56.614Z,125
2017-07-25T07:30:56.692Z,130
2017-07-25T07:31:56.670Z,135
2017-07-25T07:32:56.748Z,130
2017-07-25T07:33:56.763Z,125
2017-07-25T07:34:56.806Z,125
2017-07-25T07:35:56.796Z,125
2017-07-25T07:36:56.868Z,120
2017-07-25T07:37:56.897Z,115
2017-07-25T07:38:56.941Z,110
2017-07-25T07:39:56.937Z,115
2017-07-25T07:40:57.001Z,115
2017-07-25T07:41:57.016Z,110
2017-07-25T07:42:57.039Z,125
2017-07-25T07:43:57.118Z,130
2017-07-25T07:44:57.140Z,120
2017-07-25T07:45:57.156Z,105
2017-07-25T07:46:57.206Z,100
2017-07-25T07:47:57.417Z,110
2017-07-25T07:48:57.277Z,125
2017-07-25T07:49:57.509Z,130
2017-07-25T07:50:57.321Z,130
2017-07-25T07:51:57.360Z,120
2017-07-25T07:52:57.392Z,105
2017-07-25T07:53:57.429Z,85
2017-07-25T07:54:57.451Z,75
2017-07-25T07:55:57.515Z,95
2017-07-25T07:56:57.539Z,115
2017-07-25T07:57:57.542Z,125
2017-07-25T07:58:57.624Z,130
2017-07-25T07:59:57.633Z,140
2017-07-25T08:01:07.462Z,145
2017-07-25T08:01:57.868Z,155
2017-07-25T08:02:57.840Z,160
2017-07-25T08:03:57.775Z,170
2017-07-25T08:04:57.825Z,190
2017-07-25T08:05:57.793Z,190
2017-07-25T08:06:57.894Z,180
2017-07-25T08:07:57.908Z,175
2017-07-25T08:08:57.939Z,170
2017-07-25T08:09:57.987Z,170
2017-07-25T08:10:58.031Z,185
2017-07-25T08:11:58.037Z,190
2017-07-25T08:12:58.059Z,195
2017-07-25T08:13:58.084Z,185
2017-07-25T08:14:58.135Z,205
2017-07-25T08:15:58.190Z,220
2017-07-25T08:16:58.188Z,245
2017-07-25T08:17:58.302Z,235
2017-07-25T08:18:58.489Z,215
2017-07-25T08:19:58.307Z,210
2017-07-25T08:20:58.358Z,195
2017-07-25T08:21:58.490Z,225
2017-07-25T08:22:58.435Z,235
2017-07-25T08:23:58.434Z,235
2017-07-25T08:24:58.472Z,215
2017-07-25T08:25:58.512Z,205
2017-07-25T08:26:58.545Z,215
2017-07-25T08:27:58.611Z,230
2017-07-25T08:28:58.626Z,230
2017-07-25T08:29:58.648Z,240
2017-07-25T08:30:58.681Z,245
2017-07-25T08:31:58.717Z,235
2017-07-25T08:32:58.778Z,215
2017-07-25T08:33:58.781Z,195
2017-07-25T08:34:58.833Z,175
2017-07-25T08:35:58.872Z,160
2017-07-25T08:36:58.887Z,150
2017-07-25T08:37:58.921Z,140
2017-07-25T08:38:58.990Z,150
2017-07-25T08:39:58.986Z,185
2017-07-25T08:40:59.145Z,230
2017-07-25T08:41:59.057Z,260
2017-07-25T08:42:59.079Z,270
2017-07-25T08:43:59.153Z,285
2017-07-25T08:44:59.185Z,300
2017-07-25T08:45:59.334Z,310
2017-07-25T08:46:59.239Z,300
2017-07-25T08:47:59.275Z,285
2017-07-25T08:48:59.351Z,260
2017-07-25T08:49:59.349Z,255
2017-07-25T08:50:59.473Z,275
2017-07-25T08:51:59.422Z,290
2017-07-25T08:52:59.647Z,325
2017-07-25T08:53:59.470Z,330
2017-07-25T08:54:59.555Z,335
2017-07-25T08:55:59.684Z,360
2017-07-25T08:56:59.580Z,375
2017-07-25T08:57:59.637Z,420
2017-07-25T08:58:59.671Z,465
2017-07-25T08:59:59.882Z,505
2017-07-25T09:01:00.083Z,555
2017-07-25T09:01:59.827Z,560
2017-07-25T09:03:00.006Z,510
2017-07-25T09:03:59.892Z,495
2017-07-25T09:04:59.832Z,500
2017-07-25T09:05:59.886Z,500
2017-07-25T09:07:00.144Z,505
2017-07-25T09:07:59.993Z,485
2017-07-25T09:08:59.990Z,490
2017-07-25T09:10:00.027Z,520
2017-07-25T09:11:00.100Z,525
2017-07-25T09:12:00.058Z,475
2017-07-25T09:13:00.131Z,440
2017-07-25T09:14:00.199Z,420
2017-07-25T09:15:00.206Z,395
2017-07-25T09:16:00.253Z,375
2017-07-25T09:17:00.251Z,350
2017-07-25T09:18:00.706Z,340
2017-07-25T09:19:00.539Z,330
2017-07-25T09:20:00.421Z,325
2017-07-25T09:21:00.447Z,315
2017-07-25T09:22:00.448Z,315
2017-07-25T09:23:00.553Z,330
2017-07-25T09:24:00.545Z,350
2017-07-25T09:25:00.600Z,360
2017-07-25T09:26:00.622Z,355
2017-07-25T09:27:00.655Z,330
2017-07-25T09:28:00.649Z,310
2017-07-25T09:29:00.709Z,300
2017-07-25T09:30:00.763Z,295
2017-07-25T09:31:00.802Z,300
2017-07-25T09:32:00.780Z,315
2017-07-25T09:33:00.867Z,320
2017-07-25T09:34:00.854Z,310
2017-07-25T09:35:00.901Z,305
2017-07-25T09:36:00.972Z,295
2017-07-25T09:37:01.016Z,280
2017-07-25T09:38:01.005Z,305
2017-07-25T09:39:01.055Z,340
2017-07-25T09:40:01.134Z,395
2017-07-25T09:41:01.133Z,465
2017-07-25T09:42:01.151Z,540
2017-07-25T09:43:01.185Z,555
2017-07-25T09:44:01.245Z,545
2017-07-25T09:45:01.258Z,565
2017-07-25T09:46:01.298Z,600
2017-07-25T09:47:01.340Z,640
2017-07-25T09:48:01.392Z,625
2017-07-25T09:49:01.395Z,580
2017-07-25T09:50:01.437Z,520
2017-07-25T09:51:01.493Z,490
2017-07-25T09:52:01.560Z,480
2017-07-25T09:53:01.553Z,455
2017-07-25T09:54:01.605Z,430
2017-07-25T09:55:01.628Z,400
2017-07-25T09:56:01.879Z,385
2017-07-25T09:57:01.719Z,365
2017-07-25T09:58:01.730Z,345
2017-07-25T09:59:01.777Z,325
2017-07-25T10:00:01.780Z,315
2017-07-25T10:01:02.109Z,315
2017-07-25T10:02:01.920Z,295
2017-07-25T10:03:01.917Z,280
2017-07-25T10:04:01.946Z,280
2017-07-25T10:05:01.976Z,290
2017-07-25T10:06:02.147Z,305
2017-07-25T10:07:02.058Z,315
2017-07-25T10:08:02.090Z,315
2017-07-25T10:09:02.136Z,315
2017-07-25T10:10:02.395Z,320
2017-07-25T10:11:02.346Z,310
2017-07-25T10:12:02.266Z,315
2017-07-25T10:13:02.272Z,320
2017-07-25T10:14:02.280Z,315
2017-07-25T10:15:02.591Z,300
2017-07-25T10:16:02.899Z,280
2017-07-25T10:17:02.440Z,270
2017-07-25T10:18:02.468Z,260
2017-07-25T10:19:02.499Z,250
2017-07-25T10:20:02.518Z,250
2017-07-25T10:21:02.644Z,255
2017-07-25T10:22:02.595Z,265
2017-07-25T10:23:02.597Z,270
2017-07-25T10:24:02.675Z,275
2017-07-25T10:25:02.716Z,275
2017-07-25T10:26:02.743Z,280
2017-07-25T10:27:02.776Z,290
2017-07-25T10:28:02.847Z,300
2017-07-25T10:29:02.845Z,310
2017-07-25T10:30:02.912Z,305
2017-07-25T10:31:02.895Z,295
2017-07-25T10:32:02.970Z,290
2017-07-25T10:33:03.024Z,285
2017-07-25T10:34:03.452Z,275
2017-07-25T10:35:03.070Z,275
2017-07-25T10:36:03.073Z,280
2017-07-25T10:37:03.157Z,285
2017-07-25T10:38:03.176Z,305
2017-07-25T10:39:03.202Z,305
2017-07-25T10:40:03.250Z,310
2017-07-25T10:41:03.273Z,320
2017-07-25T10:42:03.287Z,330
2017-07-25T10:43:03.345Z,335
2017-07-25T10:44:03.431Z,330
2017-07-25T10:45:03.411Z,325
2017-07-25T10:46:03.450Z,345
2017-07-25T10:47:03.515Z,360
2017-07-25T10:48:03.520Z,380
2017-07-25T10:49:03.740Z,400
2017-07-25T10:50:03.593Z,425
2017-07-25T10:51:03.641Z,460
2017-07-25T10:52:03.667Z,505
2017-07-25T10:53:03.858Z,550
2017-07-25T10:54:03.742Z,580
2017-07-25T10:55:03.801Z,585
2017-07-25T10:56:03.773Z,580
2017-07-25T10:57:03.841Z,560
2017-07-25T10:58:03.878Z,565
2017-07-25T10:59:03.898Z,585
2017-07-25T11:00:03.962Z,610
2017-07-25T11:01:04.180Z,620
2017-07-25T11:02:04.596Z,625
2017-07-25T11:03:04.071Z,585
2017-07-25T11:04:04.107Z,510
2017-07-25T11:05:04.126Z,490
2017-07-25T11:06:04.173Z,530
2017-07-25T11:07:04.222Z,590
2017-07-25T11:08:04.237Z,645
2017-07-25T11:09:04.252Z,685
2017-07-25T11:10:04.465Z,730
2017-07-25T11:11:04.329Z,800
2017-07-25T11:12:04.394Z,935
2017-07-25T11:13:04.843Z,1060
2017-07-25T11:14:04.482Z,1140
2017-07-25T11:15:04.483Z,1145
2017-07-25T11:16:04.511Z,1170
2017-07-25T11:17:04.601Z,1165
2017-07-25T11:18:04.609Z,1205
2017-07-25T11:19:04.647Z,1240
2017-07-25T11:20:04.721Z,1145
2017-07-25T11:21:04.743Z,945
2017-07-25T11:22:04.746Z,925
2017-07-25T11:23:04.766Z,975
2017-07-25T11:24:04.839Z,990
2017-07-25T11:25:04.900Z,1020
2017-07-25T11:26:04.926Z,995
2017-07-25T11:27:04.985Z,870
2017-07-25T11:28:05.002Z,765
2017-07-25T11:29:05.052Z,655
2017-07-25T11:30:05.095Z,620
2017-07-25T11:31:05.116Z,665
2017-07-25T11:32:05.145Z,735
2017-07-25T11:33:05.192Z,795
2017-07-25T11:34:05.248Z,825
2017-07-25T11:35:05.266Z,800
2017-07-25T11:36:05.683Z,755
2017-07-25T11:37:05.318Z,745
2017-07-25T11:38:05.361Z,790
2017-07-25T11:39:05.430Z,845
2017-07-25T11:40:05.457Z,900
2017-07-25T11:41:05.502Z,940
2017-07-25T11:42:05.698Z,900
2017-07-25T11:43:05.550Z,850
2017-07-25T11:44:05.620Z,785
2017-07-25T11:45:05.641Z,765
2017-07-25T11:46:05.665Z,775
2017-07-25T11:47:05.723Z,820
2017-07-25T11:48:05.755Z,900
2017-07-25T11:49:06.037Z,945
2017-07-25T11:50:05.836Z,975
2017-07-25T11:51:05.873Z,1000
2017-07-25T11:52:05.923Z,970
2017-07-25T11:53:05.965Z,960
2017-07-25T11:54:06.006Z,965
2017-07-25T11:55:06.047Z,980
2017-07-25T11:56:06.043Z,1005
2017-07-25T11:57:06.293Z,995
2017-07-25T11:58:06.363Z,975
2017-07-25T11:59:06.181Z,945
2017-07-25T12:00:06.397Z,890
2017-07-25T12:01:06.485Z,820
2017-07-25T12:02:12.965Z,760
2017-07-25T12:03:06.335Z,725
2017-07-25T12:04:06.381Z,720
2017-07-25T12:05:06.694Z,710
2017-07-25T12:06:06.470Z,695
2017-07-25T12:07:06.486Z,705
2017-07-25T12:08:06.598Z,705
2017-07-25T12:09:06.758Z,690
2017-07-25T12:10:06.635Z,665
2017-07-25T12:11:06.657Z,640
2017-07-25T12:12:06.689Z,615
2017-07-25T12:13:06.705Z,595
2017-07-25T12:14:06.764Z,605
2017-07-25T12:15:07.048Z,600
2017-07-25T12:16:06.877Z,595
2017-07-25T12:17:06.914Z,595
2017-07-25T12:18:06.912Z,605
2017-07-25T12:19:06.971Z,625
2017-07-25T12:20:07.089Z,640
2017-07-25T12:21:07.234Z,635
2017-07-25T12:22:07.097Z,615
2017-07-25T12:23:07.126Z,565
2017-07-25T12:24:07.180Z,510
2017-07-25T12:25:07.191Z,450
2017-07-25T12:26:07.197Z,405
2017-07-25T12:27:07.508Z,375
2017-07-25T12:28:07.303Z,380
2017-07-25T12:29:07.399Z,415
2017-07-25T12:30:07.582Z,460
2017-07-25T12:31:07.401Z,495
2017-07-25T12:32:07.462Z,515
2017-07-25T12:33:07.516Z,530
2017-07-25T12:34:07.534Z,530
2017-07-25T12:35:07.576Z,555
2017-07-25T12:36:07.640Z,585
2017-07-25T12:37:07.609Z,615
2017-07-25T12:38:07.654Z,595
2017-07-25T12:39:07.724Z,590
2017-07-25T12:40:07.751Z,600
2017-07-25T12:41:07.803Z,585
2017-07-25T12:42:08.018Z,580
2017-07-25T12:43:08.252Z,580
2017-07-25T12:44:08.124Z,580
2017-07-25T12:45:07.979Z,575
2017-07-25T12:46:08.057Z,585
2017-07-25T12:47:08.271Z,615
2017-07-25T12:48:08.101Z,635
2017-07-25T12:49:08.136Z,625
2017-07-25T12:50:08.184Z,615
2017-07-25T12:51:08.345Z,600
2017-07-25T12:52:08.261Z,585
2017-07-25T12:53:08.279Z,545
2017-07-25T12:54:08.305Z,520
2017-07-25T12:55:08.358Z,480
2017-07-25T12:56:08.426Z,445
2017-07-25T12:57:08.432Z,430
2017-07-25T12:58:08.667Z,440
2017-07-25T12:59:08.710Z,460
2017-07-25T13:00:08.924Z,465
2017-07-25T13:01:08.604Z,460
2017-07-25T13:02:18.398Z,450
2017-07-25T13:03:08.745Z,435
2017-07-25T13:04:08.703Z,445
2017-07-25T13:05:08.832Z,460
2017-07-25T13:06:08.806Z,465
2017-07-25T13:07:08.820Z,455
2017-07-25T13:08:08.830Z,440
2017-07-25T13:09:08.906Z,430
2017-07-25T13:10:08.949Z,415
2017-07-25T13:11:08.982Z,405
2017-07-25T13:12:08.967Z,400
2017-07-25T13:13:09.008Z,390
2017-07-25T13:14:09.465Z,380
2017-07-25T13:15:09.639Z,375
2017-07-25T13:16:09.176Z,360
2017-07-25T13:17:09.180Z,345
2017-07-25T13:18:09.192Z,335
2017-07-25T13:19:09.199Z,320
2017-07-25T13:20:09.452Z,315
2017-07-25T13:21:09.372Z,305
2017-07-25T13:22:09.376Z,300
2017-07-25T13:23:09.465Z,290
2017-07-25T13:24:09.442Z,280
2017-07-25T13:25:09.495Z,280
2017-07-25T13:26:09.505Z,285
2017-07-25T13:27:09.586Z,290
2017-07-25T13:28:09.653Z,300
2017-07-25T13:29:09.860Z,315
2017-07-25T13:30:09.862Z,350
2017-07-25T13:31:09.962Z,400
2017-07-25T13:32:09.719Z,440
2017-07-25T13:33:09.760Z,450
2017-07-25T13:34:09.792Z,455
2017-07-25T13:35:10.433Z,455
2017-07-25T13:36:10.109Z,445
2017-07-25T13:37:09.906Z,420
2017-07-25T13:38:09.950Z,395
2017-07-25T13:39:10.027Z,365
2017-07-25T13:40:10.058Z,335
2017-07-25T13:41:10.071Z,300
2017-07-25T13:42:10.090Z,270
2017-07-25T13:43:10.365Z,250
2017-07-25T13:44:10.465Z,230
2017-07-25T13:45:10.447Z,220
2017-07-25T13:46:10.672Z,215
2017-07-25T13:47:10.511Z,200
2017-07-25T13:48:10.337Z,205
2017-07-25T13:49:10.399Z,215
2017-07-25T13:50:10.436Z,215
2017-07-25T13:51:10.666Z,215
2017-07-25T13:52:10.573Z,210
2017-07-25T13:53:10.534Z,205
2017-07-25T13:54:10.594Z,195
2017-07-25T13:55:10.800Z,190
2017-07-25T13:56:10.655Z,195
2017-07-25T13:57:10.665Z,210
2017-07-25T13:58:10.905Z,245
2017-07-25T13:59:10.768Z,270
2017-07-25T14:00:10.989Z,310
2017-07-25T14:01:11.013Z,350
2017-07-25T14:02:20.348Z,360
2017-07-25T14:03:11.628Z,355
2017-07-25T14:04:11.820Z,340
2017-07-25T14:05:11.853Z,335
2017-07-25T14:06:11.570Z,325
2017-07-25T14:07:11.525Z,310
2017-07-25T14:08:11.572Z,295
2017-07-25T14:09:11.595Z,280
2017-07-25T14:10:11.683Z,270